Terminal Aerodrome Forecast
Issued by NWS

Home | Current Version | Previous Version | Text Only | Print | Product List | Glossary On
Versions: 1 2 3 4 5 6 7 8 9 10 11 12 13 14 15 16 17 18 19 20 21 22 23 24 25 26 27 28 29 30 31 32 33 34
000
FTAK31 PAFA 240758 AAA
TAFAOT
TAF AMD
PAOT 240758Z 2408/2506 19007KT P6SM VCSH FEW060 OVC110
     FM241500 19011KT P6SM -SHRA OVC010
     FM241800 19010KT P6SM -SHRA OVC025
     FM250200 20010KT P6SM OVC050=

USA.gov is the U.S. government's official web portal to all federal, state and local government web resources and services.